createdAt,value
2022-10-01T00:00:09.063Z,99963.90
2022-10-01T00:02:59.572Z,99958.56
2022-10-01T00:06:01.109Z,99958.98
2022-10-01T00:08:31.268Z,99959.28
2022-10-01T00:11:10.668Z,99959.23
2022-10-01T00:14:02.076Z,99955.05
2022-10-01T00:16:42.826Z,99960.20
2022-10-01T00:19:15.779Z,99960.17
2022-10-01T00:21:54.916Z,99963.52
2022-10-01T00:24:29.771Z,99961.08
2022-10-01T00:27:23.532Z,99961.42
2022-10-01T00:30:04.802Z,99967.11
2022-10-01T00:32:46.338Z,99965.18
2022-10-01T00:36:05.765Z,99963.77
2022-10-01T00:39:02.695Z,99964.67
2022-10-01T00:41:44.542Z,99964.48
2022-10-01T00:45:08.518Z,99960.98
2022-10-01T00:47:52.043Z,99963.95
2022-10-01T00:51:16.642Z,99965.84
2022-10-01T00:54:24.031Z,99968.15
2022-10-01T00:57:31.002Z,99966.36
2022-10-01T01:00:15.196Z,99962.54
2022-10-01T01:03:00.919Z,99962.90
2022-10-01T01:05:47.832Z,99960.36
2022-10-01T01:08:54.133Z,99960.48
2022-10-01T01:12:01.510Z,99956.90
2022-10-01T01:15:11.576Z,99953.20
2022-10-01T01:18:26.725Z,99952.14
2022-10-01T01:21:28.409Z,99951.85
2022-10-01T01:24:29.010Z,99948.08
2022-10-01T01:27:29.655Z,99949.41
2022-10-01T01:30:10.597Z,99947.93
2022-10-01T01:32:56.132Z,99945.40
2022-10-01T01:35:56.357Z,99944.11
2022-10-01T01:38:41.435Z,99942.63
2022-10-01T01:41:15.692Z,99944.30
2022-10-01T01:43:51.985Z,99946.48
2022-10-01T01:46:31.207Z,99943.54
2022-10-01T01:49:04.587Z,99938.00
2022-10-01T01:51:52.049Z,99937.45
2022-10-01T01:54:20.878Z,99938.36
2022-10-01T01:56:58.592Z,99944.98
2022-10-01T01:59:32.805Z,99942.85
2022-10-01T02:02:08.832Z,99940.95
2022-10-01T02:04:46.107Z,99936.91
2022-10-01T02:08:08.230Z,99934.66
2022-10-01T02:11:25.190Z,99929.02
2022-10-01T02:14:39.136Z,99929.63
2022-10-01T02:17:21.479Z,99926.59
2022-10-01T02:20:04.787Z,99919.96
2022-10-01T02:23:10.292Z,99915.34
2022-10-01T02:26:01.328Z,99913.48
2022-10-01T02:28:43.386Z,99914.48
2022-10-01T02:31:15.011Z,99911.92
2022-10-01T02:33:51.936Z,99907.53
2022-10-01T02:36:27.539Z,99901.98
2022-10-01T02:39:32.252Z,99901.11
2022-10-01T02:42:29.439Z,99898.33
2022-10-01T02:45:23.921Z,99898.73
2022-10-01T02:48:13.435Z,99896.79
2022-10-01T02:51:20.372Z,99892.13
2022-10-01T02:54:32.526Z,99894.15
2022-10-01T02:57:24.618Z,99898.92
2022-10-01T03:00:03.524Z,99897.11
2022-10-01T03:02:59.899Z,99898.44
2022-10-01T03:05:34.369Z,99897.59
2022-10-01T03:08:28.507Z,99897.57
2022-10-01T03:11:30.229Z,99894.83
2022-10-01T03:14:25.938Z,99893.82
2022-10-01T03:17:14.540Z,99895.11
2022-10-01T03:19:51.723Z,99894.39
2022-10-01T03:22:48.265Z,99893.84
2022-10-01T03:25:33.344Z,99895.72
2022-10-01T03:28:36.388Z,99888.27
2022-10-01T03:31:49.024Z,99885.96
2022-10-01T03:34:30.554Z,99881.23
2022-10-01T03:37:31.399Z,99881.27
2022-10-01T03:40:50.052Z,99882.02
2022-10-01T03:43:38.383Z,99877.85
2022-10-01T03:46:26.308Z,99881.46
2022-10-01T03:49:05.490Z,99878.33
2022-10-01T03:52:02.827Z,99878.27
2022-10-01T03:54:32.653Z,99882.61
2022-10-01T03:57:23.095Z,99884.48
2022-10-01T04:00:14.891Z,99884.54
2022-10-01T04:03:13.149Z,99882.96
2022-10-01T04:05:46.678Z,99881.89
2022-10-01T04:08:24.208Z,99876.57
2022-10-01T04:11:30.081Z,99872.14
2022-10-01T04:14:29.919Z,99867.30
2022-10-01T04:17:11.212Z,99864.56
2022-10-01T04:20:05.797Z,99859.10
2022-10-01T04:22:58.189Z,99864.57
2022-10-01T04:25:46.951Z,99866.75
2022-10-01T04:28:29.117Z,99867.77
2022-10-01T04:31:26.735Z,99862.84
2022-10-01T04:34:03.627Z,99866.23
2022-10-01T04:37:26.081Z,99867.30
2022-10-01T04:40:08.377Z,99871.45
2022-10-01T04:42:58.972Z,99867.80
2022-10-01T04:45:47.735Z,99869.55
2022-10-01T04:48:48.456Z,99869.66
2022-10-01T04:51:31.730Z,99867.33
2022-10-01T04:54:09.137Z,99867.02
2022-10-01T04:57:01.339Z,99865.95
2022-10-01T04:59:48.029Z,99868.02
2022-10-01T05:02:29.710Z,99867.38
2022-10-01T05:05:20.252Z,99860.36
2022-10-01T05:07:57.937Z,99863.37
2022-10-01T05:10:29.874Z,99864.90
2022-10-01T05:14:07.058Z,99858.82
2022-10-01T05:16:35.955Z,99855.91
2022-10-01T05:19:17.623Z,99854.58
2022-10-01T05:21:46.232Z,99857.80
2022-10-01T05:24:17.687Z,99856.52
2022-10-01T05:26:46.123Z,99860.17
2022-10-01T05:29:21.821Z,99859.46
2022-10-01T05:31:57.769Z,99858.11
2022-10-01T05:34:36.752Z,99858.84
2022-10-01T05:37:21.973Z,99860.81
2022-10-01T05:40:02.229Z,99855.77
2022-10-01T05:43:02.718Z,99855.66
2022-10-01T05:45:42.758Z,99846.61
2022-10-01T05:48:17.985Z,99859.69
2022-10-01T05:51:10.071Z,99855.27
2022-10-01T05:53:41.489Z,99846.69
2022-10-01T05:56:28.010Z,99846.25
2022-10-01T05:59:03.365Z,99840.30
2022-10-01T06:01:38.390Z,99842.75
2022-10-01T06:04:24.534Z,99847.48
2022-10-01T06:07:01.071Z,99843.14
2022-10-01T06:09:34.803Z,99847.84
2022-10-01T06:12:26.402Z,99843.31
2022-10-01T06:15:21.505Z,99842.27
2022-10-01T06:17:53.729Z,99844.41
2022-10-01T06:20:24.648Z,99846.10
2022-10-01T06:23:22.426Z,99847.70
2022-10-01T06:25:57.845Z,99843.46
2022-10-01T06:28:38.469Z,99841.60
2022-10-01T06:31:09.677Z,99839.86
2022-10-01T06:34:17.332Z,99836.50
2022-10-01T06:36:46.503Z,99836.48
2022-10-01T06:39:15.000Z,99839.70
2022-10-01T06:41:52.684Z,99837.89
2022-10-01T06:44:25.049Z,99834.05
2022-10-01T06:46:56.635Z,99836.58
2022-10-01T06:49:30.904Z,99835.20
2022-10-01T06:52:17.486Z,99835.52
2022-10-01T06:54:57.578Z,99834.08
2022-10-01T06:57:34.149Z,99831.52
2022-10-01T07:00:19.559Z,99825.18
2022-10-01T07:03:11.545Z,99826.80
2022-10-01T07:05:46.659Z,99829.16
2022-10-01T07:08:18.625Z,99819.19
2022-10-01T07:10:47.658Z,99816.67
2022-10-01T07:13:20.521Z,99805.77
2022-10-01T07:15:49.804Z,99806.43
2022-10-01T07:18:23.129Z,99807.43
2022-10-01T07:20:58.207Z,99804.89
2022-10-01T07:23:29.664Z,99800.70
2022-10-01T07:26:19.367Z,99798.73
2022-10-01T07:29:14.349Z,99797.52
2022-10-01T07:32:02.694Z,99791.45
2022-10-01T07:34:43.693Z,99789.98
2022-10-01T07:37:24.658Z,99789.44
2022-10-01T07:39:56.374Z,99783.40
2022-10-01T07:42:34.818Z,99784.27
2022-10-01T07:45:09.573Z,99786.46
2022-10-01T07:47:42.041Z,99785.83
2022-10-01T07:50:12.748Z,99789.45
2022-10-01T07:52:43.726Z,99786.80
2022-10-01T07:55:15.510Z,99785.42
2022-10-01T07:57:44.876Z,99786.21
2022-10-01T08:00:19.736Z,99785.89
2022-10-01T08:02:56.288Z,99786.70
2022-10-01T08:05:31.298Z,99781.88
2022-10-01T08:08:05.034Z,99780.88
2022-10-01T08:10:43.022Z,99778.80
2022-10-01T08:13:23.186Z,99776.85
2022-10-01T08:16:10.732Z,99772.45
2022-10-01T08:18:55.824Z,99769.06
2022-10-01T08:21:36.722Z,99763.20
2022-10-01T08:24:07.080Z,99760.17
2022-10-01T08:26:52.585Z,99757.69
2022-10-01T08:29:23.247Z,99751.63
2022-10-01T08:31:59.314Z,99743.60
2022-10-01T08:34:32.995Z,99741.62
2022-10-01T08:37:04.327Z,99736.64
2022-10-01T08:39:37.525Z,99736.27
2022-10-01T08:42:35.759Z,99729.92
2022-10-01T08:45:50.942Z,99723.97
2022-10-01T08:48:35.459Z,99717.66
2022-10-01T08:51:42.475Z,99709.06
2022-10-01T08:54:33.548Z,99700.55
2022-10-01T08:57:12.747Z,99699.77
2022-10-01T08:59:47.272Z,99696.69
2022-10-01T09:02:26.330Z,99697.18
2022-10-01T09:05:02.485Z,99693.64
2022-10-01T09:07:51.687Z,99688.92
2022-10-01T09:10:53.501Z,99685.16
2022-10-01T09:13:41.160Z,99681.72
2022-10-01T09:16:18.254Z,99678.86
2022-10-01T09:19:20.241Z,99677.06
2022-10-01T09:21:54.957Z,99672.96
2022-10-01T09:24:44.776Z,99671.95
2022-10-01T09:27:25.075Z,99659.72
2022-10-01T09:29:59.158Z,99656.46
2022-10-01T09:32:43.183Z,99655.29
2022-10-01T09:35:26.449Z,99655.58
2022-10-01T09:38:15.912Z,99653.20
2022-10-01T09:40:57.876Z,99649.55
2022-10-01T09:43:33.365Z,99649.61
2022-10-01T09:46:13.684Z,99643.86
2022-10-01T09:48:59.386Z,99639.96
2022-10-01T09:51:34.825Z,99635.48
2022-10-01T09:54:33.507Z,99633.30
2022-10-01T09:57:26.775Z,99628.62
2022-10-01T10:00:05.139Z,99619.95
2022-10-01T10:02:39.329Z,99618.31
2022-10-01T10:05:17.729Z,99614.69
2022-10-01T10:08:12.309Z,99613.78
2022-10-01T10:10:49.107Z,99610.67
2022-10-01T10:13:44.679Z,99608.44
2022-10-01T10:16:28.994Z,99608.20
2022-10-01T10:19:22.829Z,99608.86
2022-10-01T10:21:53.533Z,99600.77
2022-10-01T10:24:34.659Z,99598.98
2022-10-01T10:27:07.331Z,99594.60
2022-10-01T10:29:37.112Z,99593.11
2022-10-01T10:32:27.059Z,99586.92
2022-10-01T10:35:10.329Z,99580.98
2022-10-01T10:37:47.735Z,99571.11
2022-10-01T10:40:27.101Z,99567.75
2022-10-01T10:42:59.462Z,99563.85
2022-10-01T10:45:38.265Z,99560.95
2022-10-01T10:48:17.814Z,99554.77
2022-10-01T10:50:47.539Z,99549.47
2022-10-01T10:53:22.668Z,99548.83
2022-10-01T10:56:04.350Z,99546.52
2022-10-01T10:58:45.303Z,99540.80
2022-10-01T11:01:21.447Z,99536.06
2022-10-01T11:03:56.251Z,99527.16
2022-10-01T11:06:24.971Z,99525.54
2022-10-01T11:09:08.691Z,99523.19
2022-10-01T11:11:45.925Z,99522.21
2022-10-01T11:14:48.511Z,99522.45
2022-10-01T11:17:41.572Z,99512.08
2022-10-01T11:20:34.185Z,99513.42
2022-10-01T11:23:05.180Z,99507.10
2022-10-01T11:25:44.425Z,99516.45
2022-10-01T11:28:22.939Z,99506.90
2022-10-01T11:30:59.025Z,99508.58
2022-10-01T11:33:46.715Z,99511.73
2022-10-01T11:36:54.700Z,99506.77
2022-10-01T11:39:25.616Z,99500.91
2022-10-01T11:42:05.712Z,99499.14
2022-10-01T11:44:43.746Z,99495.86
2022-10-01T11:47:37.162Z,99498.40
2022-10-01T11:50:15.294Z,99494.90
2022-10-01T11:53:11.974Z,99499.65
2022-10-01T11:56:05.864Z,99495.02
2022-10-01T11:58:54.764Z,99482.17
2022-10-01T12:01:25.980Z,99492.73
2022-10-01T12:03:54.233Z,99482.60
2022-10-01T12:06:41.372Z,99488.90
2022-10-01T12:09:18.079Z,99485.96
2022-10-01T12:11:56.545Z,99492.98
2022-10-01T12:14:32.881Z,99483.38
2022-10-01T12:17:26.097Z,99475.15
2022-10-01T12:19:57.352Z,99469.85
2022-10-01T12:22:31.580Z,99464.04
2022-10-01T12:25:00.582Z,99467.48
2022-10-01T12:27:48.497Z,99465.19
2022-10-01T12:30:21.794Z,99459.20
2022-10-01T12:33:23.327Z,99453.84
2022-10-01T12:36:01.452Z,99440.58
2022-10-01T12:38:59.901Z,99435.82
2022-10-01T12:41:31.115Z,99434.57
2022-10-01T12:44:15.325Z,99437.24
2022-10-01T12:47:14.323Z,99429.34
2022-10-01T12:49:56.532Z,99426.63
2022-10-01T12:52:52.536Z,99422.11
2022-10-01T12:55:59.203Z,99413.84
2022-10-01T12:58:46.246Z,99415.53
2022-10-01T13:01:41.608Z,99418.14
2022-10-01T13:04:35.980Z,99419.15
2022-10-01T13:07:23.675Z,99417.75
2022-10-01T13:10:18.867Z,99415.00
2022-10-01T13:13:12.566Z,99417.49
2022-10-01T13:15:47.766Z,99409.23
2022-10-01T13:20:40.049Z,99401.73
2022-10-01T13:23:59.208Z,99406.80
2022-10-01T13:27:00.280Z,99412.04
2022-10-01T13:29:48.701Z,99400.92
2022-10-01T13:32:26.121Z,99402.36
2022-10-01T13:34:55.079Z,99401.92
2022-10-01T13:37:30.415Z,99399.80
2022-10-01T13:39:59.903Z,99395.64
2022-10-01T13:42:47.372Z,99398.40
2022-10-01T13:45:41.351Z,99393.71
2022-10-01T13:48:19.082Z,99392.56
2022-10-01T13:51:03.683Z,99388.66
2022-10-01T13:53:38.165Z,99381.69
2022-10-01T13:56:12.979Z,99378.58
2022-10-01T13:58:43.667Z,99373.73
2022-10-01T14:01:23.617Z,99366.34
2022-10-01T14:04:21.782Z,99365.07
2022-10-01T14:06:57.615Z,99370.20
2022-10-01T14:09:31.690Z,99367.86
2022-10-01T14:12:46.578Z,99355.68
2022-10-01T14:15:42.819Z,99353.73
2022-10-01T14:18:21.670Z,99354.71
2022-10-01T14:21:38.597Z,99352.51
2022-10-01T14:24:28.262Z,99349.48
2022-10-01T14:27:21.491Z,99350.68
2022-10-01T14:30:30.839Z,99344.02
2022-10-01T14:33:28.456Z,99343.31
2022-10-01T14:36:24.929Z,99339.61
2022-10-01T14:39:03.852Z,99338.13
2022-10-01T14:41:35.363Z,99339.48
2022-10-01T14:44:34.102Z,99334.35
2022-10-01T14:47:23.343Z,99342.88
2022-10-01T14:49:54.771Z,99353.19
2022-10-01T14:52:34.434Z,99360.13
2022-10-01T14:55:16.954Z,99374.48
2022-10-01T14:57:52.493Z,99393.59
2022-10-01T15:00:28.056Z,99409.38
2022-10-01T15:03:10.876Z,99399.17
2022-10-01T15:05:47.402Z,99400.65
2022-10-01T15:08:42.202Z,99394.31
2022-10-01T15:11:15.400Z,99407.86
2022-10-01T15:13:49.341Z,99407.77
2022-10-01T15:16:21.968Z,99409.15
2022-10-01T15:19:34.083Z,99407.02
2022-10-01T15:22:19.860Z,99410.74
2022-10-01T15:24:53.372Z,99410.96
2022-10-01T15:27:44.189Z,99406.50
2022-10-01T15:30:28.083Z,99400.95
2022-10-01T15:32:58.731Z,99398.63
2022-10-01T15:35:30.554Z,99399.89
2022-10-01T15:38:00.887Z,99394.15
2022-10-01T15:40:35.356Z,99397.52
2022-10-01T15:43:10.480Z,99397.66
2022-10-01T15:45:40.720Z,99397.45
2022-10-01T15:48:30.908Z,99392.98
2022-10-01T15:51:07.023Z,99392.04
2022-10-01T15:53:40.868Z,99392.45
2022-10-01T15:56:14.451Z,99390.84
2022-10-01T15:58:58.599Z,99385.94
2022-10-01T16:01:45.620Z,99387.27
2022-10-01T16:04:15.127Z,99381.46
2022-10-01T16:06:49.973Z,99376.20
2022-10-01T16:09:24.284Z,99375.94
2022-10-01T16:11:57.566Z,99366.80
2022-10-01T16:14:31.929Z,99375.35
2022-10-01T16:17:24.163Z,99375.38
2022-10-01T16:19:57.194Z,99376.36
2022-10-01T16:22:39.924Z,99373.48
2022-10-01T16:25:23.502Z,99369.95
2022-10-01T16:28:21.299Z,99372.19
2022-10-01T16:30:58.453Z,99367.00
2022-10-01T16:33:27.469Z,99368.90
2022-10-01T16:36:19.418Z,99371.23
2022-10-01T16:38:58.671Z,99368.77
2022-10-01T16:41:30.610Z,99367.89
2022-10-01T16:44:03.226Z,99371.58
2022-10-01T16:46:42.888Z,99372.98
2022-10-01T16:49:15.783Z,99359.59
2022-10-01T16:51:46.784Z,99367.36
2022-10-01T16:54:38.106Z,99367.27
2022-10-01T16:57:11.551Z,99369.78
2022-10-01T17:00:22.639Z,99364.67
2022-10-01T17:03:20.392Z,99364.25
2022-10-01T17:05:52.769Z,99365.59
2022-10-01T17:08:36.427Z,99368.84
2022-10-01T17:11:28.836Z,99374.63
2022-10-01T17:14:08.901Z,99374.06
2022-10-01T17:16:43.246Z,99375.35
2022-10-01T17:19:13.573Z,99368.77
2022-10-01T17:21:42.036Z,99374.39
2022-10-01T17:24:14.931Z,99374.35
2022-10-01T17:26:47.170Z,99378.88
2022-10-01T17:29:19.326Z,99380.41
2022-10-01T17:31:56.453Z,99374.73
2022-10-01T17:34:39.669Z,99379.23
2022-10-01T17:37:09.364Z,99379.98
2022-10-01T17:39:38.526Z,99382.69
2022-10-01T17:42:13.204Z,99381.36
2022-10-01T17:44:56.168Z,99382.98
2022-10-01T17:47:27.823Z,99383.86
2022-10-01T17:50:02.340Z,99386.55
2022-10-01T17:52:32.317Z,99385.63
2022-10-01T17:55:00.884Z,99384.19
2022-10-01T17:57:32.787Z,99389.19
2022-10-01T18:00:09.751Z,99389.48
2022-10-01T18:02:50.546Z,99395.59
2022-10-01T18:05:30.740Z,99398.87
2022-10-01T18:08:03.372Z,99400.16
2022-10-01T18:10:42.151Z,99400.61
2022-10-01T18:13:30.491Z,99405.04
2022-10-01T18:16:14.121Z,99405.55
2022-10-01T18:21:55.497Z,99409.80
2022-10-01T18:24:27.546Z,99421.33
2022-10-01T18:26:59.255Z,99430.10
2022-10-01T18:29:40.376Z,99427.09
2022-10-01T18:32:19.561Z,99429.51
2022-10-01T18:35:00.659Z,99427.42
2022-10-01T18:37:49.949Z,99424.06
2022-10-01T18:40:29.614Z,99418.33
2022-10-01T18:43:13.624Z,99413.93
2022-10-01T18:46:08.731Z,99413.33
2022-10-01T18:48:55.128Z,99409.70
2022-10-01T18:52:07.569Z,99410.73
2022-10-01T18:55:17.716Z,99416.50
2022-10-01T18:58:27.856Z,99419.60
2022-10-01T19:01:40.054Z,99417.89
2022-10-01T19:04:26.952Z,99414.52
2022-10-01T19:07:16.719Z,99419.70
2022-10-01T19:09:54.240Z,99416.73
2022-10-01T19:12:42.462Z,99416.08
2022-10-01T19:15:29.557Z,99416.44
2022-10-01T19:18:07.144Z,99414.65
2022-10-01T19:21:06.912Z,99412.50
2022-10-01T19:23:48.657Z,99422.77
2022-10-01T19:26:26.763Z,99415.03
2022-10-01T19:29:39.674Z,99417.49
2022-10-01T19:32:21.523Z,99418.31
2022-10-01T19:34:57.543Z,99419.91
2022-10-01T19:37:38.305Z,99423.47
2022-10-01T19:40:22.796Z,99427.38
2022-10-01T19:43:08.464Z,99430.10
2022-10-01T19:45:47.839Z,99430.31
2022-10-01T19:48:37.643Z,99433.38
2022-10-01T19:51:15.381Z,99429.84
2022-10-01T19:54:04.749Z,99435.09
2022-10-01T19:56:40.021Z,99433.66
2022-10-01T19:59:16.898Z,99437.82
2022-10-01T20:02:04.213Z,99437.55
2022-10-01T20:04:41.177Z,99441.73
2022-10-01T20:07:23.568Z,99442.75
2022-10-01T20:10:15.422Z,99445.19
2022-10-01T20:13:10.219Z,99440.21
2022-10-01T20:16:10.455Z,99442.58
2022-10-01T20:18:48.069Z,99443.35
2022-10-01T20:21:53.700Z,99443.61
2022-10-01T20:24:49.524Z,99439.95
2022-10-01T20:27:39.793Z,99443.89
2022-10-01T20:30:30.842Z,99440.50
2022-10-01T20:33:24.388Z,99443.15
2022-10-01T20:36:42.327Z,99437.79
2022-10-01T20:39:29.289Z,99446.38
2022-10-01T20:42:11.339Z,99444.35
2022-10-01T20:44:45.416Z,99446.69
2022-10-01T20:47:40.466Z,99452.70
2022-10-01T20:50:26.301Z,99455.00
2022-10-01T20:53:04.530Z,99461.84
2022-10-01T20:56:17.534Z,99460.80
2022-10-01T20:59:19.900Z,99457.86
2022-10-01T21:02:46.295Z,99459.72
2022-10-01T21:05:32.664Z,99466.59
2022-10-01T21:08:41.739Z,99468.88
2022-10-01T21:11:22.227Z,99472.02
2022-10-01T21:14:07.428Z,99470.46
2022-10-01T21:16:50.867Z,99471.52
2022-10-01T21:19:41.198Z,99473.41
2022-10-01T21:22:48.511Z,99477.23
2022-10-01T21:25:24.893Z,99477.55
2022-10-01T21:28:06.864Z,99486.90
2022-10-01T21:31:01.575Z,99485.72
2022-10-01T21:34:03.006Z,99487.02
2022-10-01T21:36:38.217Z,99489.93
2022-10-01T21:39:17.315Z,99493.26
2022-10-01T21:42:25.569Z,99490.16
2022-10-01T21:45:23.360Z,99498.08
2022-10-01T21:48:42.507Z,99498.27
2022-10-01T21:51:17.772Z,99501.86
2022-10-01T21:54:15.105Z,99503.74
2022-10-01T21:57:28.535Z,99502.69
2022-10-01T22:00:21.839Z,99503.11
2022-10-01T22:03:02.369Z,99505.55
2022-10-01T22:05:38.115Z,99508.59
2022-10-01T22:08:37.199Z,99512.05
2022-10-01T22:11:35.119Z,99516.73
2022-10-01T22:14:12.953Z,99520.95
2022-10-01T22:16:54.598Z,99521.83
2022-10-01T22:19:34.623Z,99526.03
2022-10-01T22:22:13.568Z,99531.02
2022-10-01T22:24:49.175Z,99536.08
2022-10-01T22:28:03.813Z,99534.89
2022-10-01T22:30:36.827Z,99540.66
2022-10-01T22:33:12.776Z,99542.30
2022-10-01T22:35:56.038Z,99545.49
2022-10-01T22:38:39.139Z,99552.42
2022-10-01T22:41:33.410Z,99553.56
2022-10-01T22:44:10.478Z,99555.70
2022-10-01T22:46:48.279Z,99558.27
2022-10-01T22:49:20.789Z,99559.90
2022-10-01T22:51:49.824Z,99564.05
2022-10-01T22:54:59.080Z,99562.15
2022-10-01T22:58:09.566Z,99564.94
2022-10-01T23:01:38.459Z,99571.39
2022-10-01T23:04:47.632Z,99577.96
2022-10-01T23:07:37.970Z,99587.04
2022-10-01T23:10:15.575Z,99589.52
2022-10-01T23:12:58.178Z,99595.48
2022-10-01T23:16:04.362Z,99593.19
2022-10-01T23:19:03.806Z,99600.52
2022-10-01T23:22:11.125Z,99608.02
2022-10-01T23:25:20.842Z,99615.88
2022-10-01T23:28:17.549Z,99624.96
2022-10-01T23:31:01.297Z,99626.41
2022-10-01T23:34:07.093Z,99624.14
2022-10-01T23:37:21.350Z,99639.14
2022-10-01T23:40:07.582Z,99636.77
2022-10-01T23:42:46.099Z,99649.99
2022-10-01T23:45:25.590Z,99646.35
2022-10-01T23:48:44.993Z,99659.98
2022-10-01T23:51:28.177Z,99662.56
2022-10-01T23:54:54.326Z,99662.22
2022-10-01T23:57:47.297Z,99677.33
